createdAt,value
2022-11-08T00:00:41.729Z,20.72
2022-11-08T00:03:09.124Z,20.69
2022-11-08T00:05:54.978Z,20.70
2022-11-08T00:08:40.901Z,20.69
2022-11-08T00:11:27.061Z,20.68
2022-11-08T00:13:57.250Z,20.68
2022-11-08T00:16:25.558Z,20.67
2022-11-08T00:18:52.780Z,20.68
2022-11-08T00:21:20.352Z,20.67
2022-11-08T00:23:48.050Z,20.68
2022-11-08T00:26:15.185Z,20.68
2022-11-08T00:28:42.243Z,20.66
2022-11-08T00:31:09.601Z,20.64
2022-11-08T00:33:37.671Z,20.68
2022-11-08T00:36:05.530Z,20.69
2022-11-08T00:38:33.029Z,20.66
2022-11-08T00:41:00.496Z,20.66
2022-11-08T00:43:27.921Z,20.66
2022-11-08T00:45:55.058Z,20.66
2022-11-08T00:48:22.466Z,20.66
2022-11-08T00:50:49.607Z,20.66
2022-11-08T00:53:16.944Z,20.63
2022-11-08T00:55:44.155Z,20.69
2022-11-08T00:58:11.116Z,20.67
2022-11-08T01:00:38.410Z,20.66
2022-11-08T01:03:20.838Z,20.67
2022-11-08T01:05:49.100Z,20.64
2022-11-08T01:08:18.065Z,20.64
2022-11-08T01:10:49.972Z,20.65
2022-11-08T01:13:19.018Z,20.64
2022-11-08T01:15:47.184Z,20.62
2022-11-08T01:18:17.076Z,20.63
2022-11-08T01:20:47.568Z,20.63
2022-11-08T01:23:16.053Z,20.63
2022-11-08T01:25:46.444Z,20.63
2022-11-08T01:28:14.066Z,20.60
2022-11-08T01:30:44.120Z,20.60
2022-11-08T01:33:12.758Z,20.58
2022-11-08T01:35:41.153Z,20.62
2022-11-08T01:38:09.838Z,20.61
2022-11-08T01:40:46.896Z,20.60
2022-11-08T01:43:35.443Z,20.58
2022-11-08T01:46:34.748Z,20.58
2022-11-08T01:49:35.540Z,20.56
2022-11-08T01:52:47.664Z,20.52
2022-11-08T01:55:22.855Z,20.53
2022-11-08T01:58:18.041Z,20.51
2022-11-08T02:00:45.607Z,20.51
2022-11-08T02:03:16.974Z,20.51
2022-11-08T02:05:45.066Z,20.51
2022-11-08T02:08:36.483Z,20.47
2022-11-08T02:11:05.805Z,20.51
2022-11-08T02:13:36.492Z,20.51
2022-11-08T02:16:09.695Z,20.53
2022-11-08T02:18:37.037Z,20.51
2022-11-08T02:21:32.620Z,20.51
2022-11-08T02:24:03.436Z,20.51
2022-11-08T02:26:33.616Z,20.52
2022-11-08T02:29:35.278Z,20.46
2022-11-08T02:32:04.597Z,20.46
2022-11-08T02:34:45.324Z,20.50
2022-11-08T02:37:17.072Z,20.40
2022-11-08T02:39:44.327Z,20.45
2022-11-08T02:42:18.726Z,20.50
2022-11-08T02:44:47.572Z,20.48
2022-11-08T02:47:15.307Z,20.48
2022-11-08T02:49:43.076Z,20.48
2022-11-08T02:52:10.793Z,20.46
2022-11-08T02:54:38.144Z,20.50
2022-11-08T02:57:05.635Z,20.48
2022-11-08T02:59:32.698Z,20.47
2022-11-08T03:02:00.177Z,20.46
2022-11-08T03:04:27.982Z,20.49
2022-11-08T03:06:55.208Z,20.45
2022-11-08T03:09:22.335Z,20.48
2022-11-08T03:11:49.568Z,20.47
2022-11-08T03:14:16.703Z,20.48
2022-11-08T03:16:43.830Z,20.42
2022-11-08T03:19:14.274Z,20.44
2022-11-08T03:21:41.463Z,20.43
2022-11-08T03:24:09.284Z,20.45
2022-11-08T03:26:36.359Z,20.44
2022-11-08T03:29:03.693Z,20.45
2022-11-08T03:31:30.963Z,20.41
2022-11-08T03:33:58.085Z,20.43
2022-11-08T03:36:25.561Z,20.44
2022-11-08T03:38:52.887Z,20.42
2022-11-08T03:41:20.614Z,20.42
2022-11-08T03:43:48.113Z,20.44
2022-11-08T03:46:15.460Z,20.43
2022-11-08T03:48:42.815Z,20.42
2022-11-08T03:51:10.126Z,20.41
2022-11-08T03:53:37.378Z,20.41
2022-11-08T03:56:04.998Z,20.42
2022-11-08T03:58:32.184Z,20.37
2022-11-08T04:01:04.708Z,20.39
2022-11-08T04:03:32.338Z,20.37
2022-11-08T04:06:03.863Z,20.41
2022-11-08T04:08:31.439Z,20.41
2022-11-08T04:11:22.594Z,20.40
2022-11-08T04:14:08.416Z,20.31
2022-11-08T04:16:35.613Z,20.37
2022-11-08T04:19:21.434Z,20.33
2022-11-08T04:21:51.676Z,20.35
2022-11-08T04:24:19.101Z,20.36
2022-11-08T04:26:46.245Z,20.31
2022-11-08T04:29:14.035Z,20.30
2022-11-08T04:31:41.684Z,20.36
2022-11-08T04:34:08.752Z,20.35
2022-11-08T04:36:36.192Z,20.33
2022-11-08T04:41:30.937Z,20.31
2022-11-08T04:43:59.349Z,20.25
2022-11-08T04:46:29.004Z,20.33
2022-11-08T04:48:59.275Z,20.33
2022-11-08T04:51:32.469Z,20.30
2022-11-08T04:54:01.716Z,20.28
2022-11-08T04:56:30.748Z,20.30
2022-11-08T04:59:00.840Z,20.26
2022-11-08T05:01:31.251Z,20.31
2022-11-08T05:03:58.616Z,20.24
2022-11-08T05:06:31.711Z,20.24
2022-11-08T05:08:59.984Z,20.31
2022-11-08T05:11:29.974Z,20.30
2022-11-08T05:13:57.781Z,20.30
2022-11-08T05:16:32.342Z,20.29
2022-11-08T05:18:59.815Z,20.28
2022-11-08T05:21:46.676Z,20.29
2022-11-08T05:24:18.125Z,20.27
2022-11-08T05:26:48.413Z,20.26
2022-11-08T05:29:16.634Z,20.27
2022-11-08T05:31:43.826Z,20.27
2022-11-08T05:34:11.071Z,20.27
2022-11-08T05:36:38.294Z,20.25
2022-11-08T05:39:05.550Z,20.26
2022-11-08T05:41:34.742Z,20.26
2022-11-08T05:44:02.154Z,20.25
2022-11-08T05:46:29.293Z,20.25
2022-11-08T05:48:56.762Z,20.25
2022-11-08T05:51:23.910Z,20.24
2022-11-08T05:53:51.042Z,20.19
2022-11-08T05:56:18.837Z,20.23
2022-11-08T05:58:46.767Z,20.24
2022-11-08T06:01:17.646Z,20.23
2022-11-08T06:03:45.500Z,20.23
2022-11-08T06:06:21.029Z,20.24
2022-11-08T06:08:51.483Z,20.23
2022-11-08T06:11:26.141Z,20.22
2022-11-08T06:13:54.949Z,20.20
2022-11-08T06:16:24.108Z,20.22
2022-11-08T06:18:51.229Z,20.21
2022-11-08T06:21:20.634Z,20.23
2022-11-08T06:23:48.242Z,20.20
2022-11-08T06:26:15.432Z,20.21
2022-11-08T06:28:42.847Z,20.21
2022-11-08T06:31:10.142Z,20.23
2022-11-08T06:33:37.431Z,20.21
2022-11-08T06:36:06.124Z,20.22
2022-11-08T06:38:33.600Z,20.21
2022-11-08T06:41:02.174Z,20.21
2022-11-08T06:43:29.592Z,20.22
2022-11-08T06:46:02.158Z,20.18
2022-11-08T06:48:35.007Z,20.22
2022-11-08T06:51:03.909Z,20.23
2022-11-08T06:53:31.735Z,20.23
2022-11-08T06:56:02.817Z,20.20
2022-11-08T06:58:31.389Z,20.23
2022-11-08T07:00:58.664Z,20.20
2022-11-08T07:03:26.201Z,20.25
2022-11-08T07:05:53.518Z,20.24
2022-11-08T07:08:23.719Z,20.25
2022-11-08T07:10:51.801Z,20.26
2022-11-08T07:13:19.497Z,20.25
2022-11-08T07:15:48.073Z,20.28
2022-11-08T07:18:17.326Z,20.29
2022-11-08T07:20:44.755Z,20.29
2022-11-08T07:23:12.628Z,20.27
2022-11-08T07:25:39.837Z,20.33
2022-11-08T07:28:14.125Z,20.32
2022-11-08T07:33:08.315Z,20.33
2022-11-08T07:35:35.844Z,20.36
2022-11-08T07:38:03.090Z,20.37
2022-11-08T07:40:30.512Z,20.37
2022-11-08T07:43:16.490Z,20.39
2022-11-08T07:45:44.289Z,20.39
2022-11-08T07:48:13.944Z,20.39
2022-11-08T07:50:42.844Z,20.34
2022-11-08T07:53:11.176Z,20.40
2022-11-08T07:55:39.898Z,20.40
2022-11-08T07:58:10.171Z,20.41
2022-11-08T08:00:40.511Z,20.41
2022-11-08T08:03:11.585Z,20.43
2022-11-08T08:05:45.291Z,20.43
2022-11-08T08:08:14.629Z,20.43
2022-11-08T08:10:41.999Z,20.45
2022-11-08T08:13:09.332Z,20.47
2022-11-08T08:15:36.953Z,20.49
2022-11-08T08:18:07.549Z,20.47
2022-11-08T08:20:35.616Z,20.48
2022-11-08T08:23:02.888Z,20.48
2022-11-08T08:25:33.485Z,20.44
2022-11-08T08:28:01.835Z,20.45
2022-11-08T08:30:31.562Z,20.52
2022-11-08T08:33:29.992Z,20.52
2022-11-08T08:35:58.060Z,20.52
2022-11-08T08:38:25.465Z,20.52
2022-11-08T08:40:52.654Z,20.52
2022-11-08T08:43:21.257Z,20.53
2022-11-08T08:45:49.090Z,20.55
2022-11-08T08:48:16.735Z,20.55
2022-11-08T08:50:44.134Z,20.55
2022-11-08T08:53:11.405Z,20.56
2022-11-08T08:55:40.124Z,20.58
2022-11-08T08:58:07.601Z,20.59
2022-11-08T09:03:22.262Z,20.59
2022-11-08T09:05:50.162Z,20.60
2022-11-08T09:08:17.621Z,20.60
2022-11-08T09:10:44.854Z,20.61
2022-11-08T09:13:12.020Z,20.63
2022-11-08T09:15:39.457Z,20.64
2022-11-08T09:18:06.960Z,20.64
2022-11-08T09:20:34.386Z,20.65
2022-11-08T09:23:03.044Z,20.64
2022-11-08T09:25:30.484Z,20.63
2022-11-08T09:27:57.664Z,20.68
2022-11-08T09:30:25.322Z,20.59
2022-11-08T09:33:03.045Z,20.69
2022-11-08T09:35:30.729Z,20.68
2022-11-08T09:37:59.009Z,20.70
2022-11-08T09:40:46.350Z,20.70
2022-11-08T09:43:43.608Z,20.68
2022-11-08T09:46:17.231Z,20.70
2022-11-08T09:48:45.923Z,20.66
2022-11-08T09:51:19.065Z,20.71
2022-11-08T09:53:54.230Z,20.71
2022-11-08T09:56:33.530Z,20.70
2022-11-08T09:59:31.556Z,20.69
2022-11-08T10:01:58.945Z,20.66
2022-11-08T10:04:31.289Z,20.73
2022-11-08T10:07:10.606Z,20.72
2022-11-08T10:10:12.160Z,20.72
2022-11-08T10:13:22.860Z,20.70
2022-11-08T10:16:03.648Z,20.71
2022-11-08T10:18:46.137Z,20.70
2022-11-08T10:21:56.285Z,20.69
2022-11-08T10:24:47.966Z,20.67
2022-11-08T10:27:49.982Z,20.66
2022-11-08T10:30:26.428Z,20.69
2022-11-08T10:32:57.852Z,20.69
2022-11-08T10:36:02.060Z,20.72
2022-11-08T10:38:41.703Z,20.73
2022-11-08T10:41:41.035Z,20.72
2022-11-08T10:44:17.293Z,20.72
2022-11-08T10:47:01.282Z,20.73
2022-11-08T10:49:43.379Z,20.73
2022-11-08T10:52:20.683Z,20.73
2022-11-08T10:54:57.374Z,20.73
2022-11-08T10:57:34.706Z,20.74
2022-11-08T11:00:21.713Z,20.74
2022-11-08T11:02:54.583Z,20.75
2022-11-08T11:05:35.643Z,20.76
2022-11-08T11:08:16.456Z,20.76
2022-11-08T11:10:49.305Z,20.77
2022-11-08T11:16:03.365Z,20.78
2022-11-08T11:18:46.421Z,20.78
2022-11-08T11:21:22.348Z,20.79
2022-11-08T11:23:56.267Z,20.80
2022-11-08T11:26:34.352Z,20.79
2022-11-08T11:29:05.562Z,20.79
2022-11-08T11:31:36.602Z,20.79
2022-11-08T11:34:19.099Z,20.81
2022-11-08T11:37:13.678Z,20.78
2022-11-08T11:40:03.885Z,20.75
2022-11-08T11:43:00.048Z,20.76
2022-11-08T11:45:39.095Z,20.78
2022-11-08T11:48:17.313Z,20.77
2022-11-08T11:50:50.055Z,20.77
2022-11-08T11:53:39.111Z,20.77
2022-11-08T11:57:03.267Z,20.75
2022-11-08T11:59:47.722Z,20.77
2022-11-08T12:02:33.702Z,20.76
2022-11-08T12:05:28.821Z,20.77
2022-11-08T12:08:41.634Z,20.75
2022-11-08T12:11:44.913Z,20.74
2022-11-08T12:14:25.165Z,20.73
2022-11-08T12:17:16.535Z,20.75
2022-11-08T12:20:27.085Z,20.72
2022-11-08T12:23:10.541Z,20.74
2022-11-08T12:25:59.143Z,20.74
2022-11-08T12:29:10.303Z,20.73
2022-11-08T12:32:18.956Z,20.73
2022-11-08T12:35:10.703Z,20.72
2022-11-08T12:38:07.909Z,20.72
2022-11-08T12:40:45.048Z,20.74
2022-11-08T12:43:48.115Z,20.73
2022-11-08T12:46:18.638Z,20.74
2022-11-08T12:49:28.731Z,20.72
2022-11-08T12:52:31.048Z,20.74
2022-11-08T12:55:04.113Z,20.75
2022-11-08T12:57:32.153Z,20.76
2022-11-08T13:00:18.180Z,20.74
2022-11-08T13:03:11.403Z,20.75
2022-11-08T13:05:52.642Z,20.77
2022-11-08T13:08:38.196Z,20.77
2022-11-08T13:11:21.689Z,20.79
2022-11-08T13:13:57.301Z,20.79
2022-11-08T13:16:27.233Z,20.79
2022-11-08T13:19:01.354Z,20.81
2022-11-08T13:21:28.484Z,20.83
2022-11-08T13:24:43.309Z,20.82
2022-11-08T13:27:39.244Z,20.78
2022-11-08T13:30:13.998Z,20.82
2022-11-08T13:32:45.189Z,20.82
2022-11-08T13:35:32.042Z,20.82
2022-11-08T13:38:02.232Z,20.83
2022-11-08T13:40:32.681Z,20.84
2022-11-08T13:43:27.562Z,20.83
2022-11-08T13:45:55.357Z,20.84
2022-11-08T13:48:26.204Z,20.84
2022-11-08T13:51:18.964Z,20.85
2022-11-08T13:53:54.848Z,20.85
2022-11-08T13:56:46.059Z,20.85
2022-11-08T13:59:32.221Z,20.82
2022-11-08T14:02:01.155Z,20.83
2022-11-08T14:04:33.884Z,20.84
2022-11-08T14:07:13.879Z,20.83
2022-11-08T14:10:08.187Z,20.82
2022-11-08T14:12:56.771Z,20.82
2022-11-08T14:15:37.038Z,20.83
2022-11-08T14:18:30.068Z,20.81
2022-11-08T14:20:58.000Z,20.80
2022-11-08T14:23:39.570Z,20.73
2022-11-08T14:26:13.877Z,20.81
2022-11-08T14:28:44.490Z,20.76
2022-11-08T14:31:34.537Z,20.76
2022-11-08T14:34:02.586Z,20.81
2022-11-08T14:36:31.896Z,20.82
2022-11-08T14:39:16.733Z,20.81
2022-11-08T14:41:55.527Z,20.80
2022-11-08T14:44:24.087Z,20.79
2022-11-08T14:46:52.415Z,20.82
2022-11-08T14:49:23.347Z,20.81
2022-11-08T14:52:12.556Z,20.79
2022-11-08T14:54:44.490Z,20.79
2022-11-08T14:57:44.921Z,20.77
2022-11-08T15:00:28.548Z,20.77
2022-11-08T15:03:04.422Z,20.76
2022-11-08T15:05:38.911Z,20.77
2022-11-08T15:08:20.381Z,20.76
2022-11-08T15:11:09.649Z,20.73
2022-11-08T15:13:50.543Z,20.76
2022-11-08T15:16:19.139Z,20.75
2022-11-08T15:18:47.047Z,20.75
2022-11-08T15:21:31.333Z,20.74
2022-11-08T15:24:14.549Z,20.75
2022-11-08T15:27:04.983Z,20.70
2022-11-08T15:30:01.370Z,20.72
2022-11-08T15:32:36.977Z,20.72
2022-11-08T15:35:07.329Z,20.73
2022-11-08T15:37:38.883Z,20.72
2022-11-08T15:40:28.519Z,20.68
2022-11-08T15:42:56.077Z,20.61
2022-11-08T15:45:32.231Z,20.71
2022-11-08T15:48:09.107Z,20.72
2022-11-08T15:50:36.592Z,20.68
2022-11-08T15:53:04.986Z,20.72
2022-11-08T15:55:43.195Z,20.73
2022-11-08T15:58:23.069Z,20.69
2022-11-08T16:00:50.605Z,20.70
2022-11-08T16:03:18.057Z,20.72
2022-11-08T16:05:45.680Z,20.71
2022-11-08T16:08:18.626Z,20.71
2022-11-08T16:10:53.259Z,20.71
2022-11-08T16:13:29.882Z,20.65
2022-11-08T16:15:57.963Z,20.69
2022-11-08T16:18:25.663Z,20.70
2022-11-08T16:20:53.043Z,20.69
2022-11-08T16:23:20.300Z,20.63
2022-11-08T16:25:51.565Z,20.69
2022-11-08T16:28:38.756Z,20.68
2022-11-08T16:31:10.134Z,20.67
2022-11-08T16:33:37.469Z,20.67
2022-11-08T16:36:18.036Z,20.67
2022-11-08T16:38:53.995Z,20.68
2022-11-08T16:41:23.426Z,20.64
2022-11-08T16:43:51.384Z,20.66
2022-11-08T16:46:21.292Z,20.66
2022-11-08T16:48:57.459Z,20.66
2022-11-08T16:51:27.566Z,20.64
2022-11-08T16:53:54.775Z,20.64
2022-11-08T16:56:22.268Z,20.63
2022-11-08T16:58:49.966Z,20.63
2022-11-08T17:01:22.644Z,20.62
2022-11-08T17:03:49.733Z,20.64
2022-11-08T17:06:18.652Z,20.64
2022-11-08T17:08:46.712Z,20.63
2022-11-08T17:11:20.878Z,20.64
2022-11-08T17:13:48.667Z,20.62
2022-11-08T17:16:16.834Z,20.62
2022-11-08T17:18:47.448Z,20.63
2022-11-08T17:21:43.002Z,20.63
2022-11-08T17:24:04.615Z,20.61
2022-11-08T17:26:31.863Z,20.60
2022-11-08T17:28:59.107Z,20.60
2022-11-08T17:31:26.301Z,20.59
2022-11-08T17:33:55.969Z,20.52
2022-11-08T17:36:23.542Z,20.57
2022-11-08T17:38:50.837Z,20.59
2022-11-08T17:41:18.264Z,20.58
2022-11-08T17:43:45.416Z,20.59
2022-11-08T17:46:13.150Z,20.58
2022-11-08T17:48:41.464Z,20.57
2022-11-08T17:51:09.452Z,20.55
2022-11-08T17:53:37.221Z,20.56
2022-11-08T17:56:06.274Z,20.57
2022-11-08T17:58:34.656Z,20.56
2022-11-08T18:01:05.962Z,20.56
2022-11-08T18:03:34.284Z,20.55
2022-11-08T18:06:11.903Z,20.55
2022-11-08T18:08:39.166Z,20.51
2022-11-08T18:11:06.628Z,20.54
2022-11-08T18:13:35.232Z,20.54
2022-11-08T18:16:14.748Z,20.54
2022-11-08T18:18:42.774Z,20.53
2022-11-08T18:21:10.907Z,20.53
2022-11-08T18:23:45.103Z,20.53
2022-11-08T18:26:14.172Z,20.52
2022-11-08T18:28:42.750Z,20.47
2022-11-08T18:31:17.253Z,20.51
2022-11-08T18:33:45.000Z,20.51
2022-11-08T18:36:22.811Z,20.50
2022-11-08T18:38:51.396Z,20.51
2022-11-08T18:41:31.793Z,20.48
2022-11-08T18:44:01.070Z,20.44
2022-11-08T18:46:34.309Z,20.50
2022-11-08T18:49:07.311Z,20.49
2022-11-08T18:51:34.554Z,20.48
2022-11-08T18:54:01.674Z,20.45
2022-11-08T18:56:28.789Z,20.46
2022-11-08T18:58:56.124Z,20.48
2022-11-08T19:01:23.252Z,20.47
2022-11-08T19:03:50.736Z,20.45
2022-11-08T19:06:19.520Z,20.45
2022-11-08T19:08:46.779Z,20.46
2022-11-08T19:11:15.326Z,20.44
2022-11-08T19:13:42.769Z,20.46
2022-11-08T19:16:16.246Z,20.46
2022-11-08T19:18:45.854Z,20.45
2022-11-08T19:21:19.145Z,20.45
2022-11-08T19:23:47.459Z,20.44
2022-11-08T19:26:23.796Z,20.37
2022-11-08T19:28:53.962Z,20.42
2022-11-08T19:31:24.577Z,20.42
2022-11-08T19:33:53.508Z,20.43
2022-11-08T19:36:24.586Z,20.41
2022-11-08T19:38:54.806Z,20.42
2022-11-08T19:41:25.415Z,20.38
2022-11-08T19:43:52.830Z,20.41
2022-11-08T19:46:23.845Z,20.40
2022-11-08T19:48:52.263Z,20.40
2022-11-08T19:51:31.617Z,20.39
2022-11-08T19:54:05.757Z,20.32
2022-11-08T19:57:02.593Z,20.38
2022-11-08T19:59:21.352Z,20.38
2022-11-08T20:01:48.480Z,20.34
2022-11-08T20:04:18.682Z,20.38
2022-11-08T20:06:46.519Z,20.39
2022-11-08T20:09:13.902Z,20.38
2022-11-08T20:11:42.528Z,20.38
2022-11-08T20:14:13.213Z,20.38
2022-11-08T20:16:44.988Z,20.37
2022-11-08T20:19:16.840Z,20.37
2022-11-08T20:21:46.249Z,20.37
2022-11-08T20:24:14.901Z,20.37
2022-11-08T20:26:43.533Z,20.35
2022-11-08T20:29:11.238Z,20.30
2022-11-08T20:31:39.161Z,20.35
2022-11-08T20:34:09.871Z,20.36
2022-11-08T20:36:37.965Z,20.36
2022-11-08T20:39:07.954Z,20.32
2022-11-08T20:41:37.422Z,20.34
2022-11-08T20:44:06.263Z,20.28
2022-11-08T20:46:34.579Z,20.33
2022-11-08T20:49:02.234Z,20.35
2022-11-08T20:51:31.844Z,20.26
2022-11-08T20:54:00.661Z,20.33
2022-11-08T20:56:30.107Z,20.33
2022-11-08T20:58:57.972Z,20.28
2022-11-08T21:01:29.200Z,20.33
2022-11-08T21:03:56.892Z,20.27
2022-11-08T21:06:26.622Z,20.33
2022-11-08T21:08:59.916Z,20.31
2022-11-08T21:11:30.519Z,20.29
2022-11-08T21:13:58.197Z,20.27
2022-11-08T21:16:46.895Z,20.32
2022-11-08T21:19:12.508Z,20.28
2022-11-08T21:21:39.670Z,20.29
2022-11-08T21:24:07.626Z,20.28
2022-11-08T21:26:36.795Z,20.30
2022-11-08T21:29:06.053Z,20.26
2022-11-08T21:31:34.251Z,20.29
2022-11-08T21:34:01.497Z,20.29
2022-11-08T21:36:29.521Z,20.24
2022-11-08T21:38:56.795Z,20.25
2022-11-08T21:41:24.106Z,20.27
2022-11-08T21:43:51.235Z,20.28
2022-11-08T21:46:22.370Z,20.28
2022-11-08T21:48:55.908Z,20.28
2022-11-08T21:51:23.553Z,20.28
2022-11-08T21:53:56.118Z,20.28
2022-11-08T21:56:25.696Z,20.28
2022-11-08T21:58:53.174Z,20.27
2022-11-08T22:01:25.419Z,20.27
2022-11-08T22:03:55.870Z,20.26
2022-11-08T22:06:22.882Z,20.25
2022-11-08T22:08:50.077Z,20.23
2022-11-08T22:11:18.705Z,20.27
2022-11-08T22:13:46.439Z,20.25
2022-11-08T22:16:13.662Z,20.26
2022-11-08T22:21:41.398Z,20.24
2022-11-08T22:24:18.239Z,20.22
2022-11-08T22:26:46.235Z,20.24
2022-11-08T22:29:14.203Z,20.14
2022-11-08T22:31:42.479Z,20.23
2022-11-08T22:34:10.849Z,20.23
2022-11-08T22:36:44.446Z,20.22
2022-11-08T22:39:15.298Z,20.22
2022-11-08T22:41:44.138Z,20.22
2022-11-08T22:44:12.738Z,20.20
2022-11-08T22:46:42.235Z,20.19
2022-11-08T22:49:10.478Z,20.21
2022-11-08T22:51:38.326Z,20.22
2022-11-08T22:54:05.755Z,20.21
2022-11-08T22:56:33.104Z,20.21
2022-11-08T22:59:00.092Z,20.20
2022-11-08T23:01:27.297Z,20.19
2022-11-08T23:03:54.292Z,20.19
2022-11-08T23:06:21.512Z,20.21
2022-11-08T23:08:48.992Z,20.19
2022-11-08T23:11:35.287Z,20.20
2022-11-08T23:14:21.243Z,20.19
2022-11-08T23:16:48.213Z,20.15
2022-11-08T23:19:40.207Z,20.17
2022-11-08T23:22:32.015Z,20.15
2022-11-08T23:24:59.507Z,20.14
2022-11-08T23:27:46.508Z,20.15
2022-11-08T23:30:34.782Z,20.13
2022-11-08T23:33:03.407Z,20.10
2022-11-08T23:35:30.472Z,20.12
2022-11-08T23:37:57.902Z,20.08
2022-11-08T23:40:43.757Z,20.12
2022-11-08T23:43:37.384Z,20.12
2022-11-08T23:46:12.410Z,20.11
2022-11-08T23:48:40.743Z,20.09
2022-11-08T23:51:08.319Z,20.07
2022-11-08T23:53:37.473Z,20.11
2022-11-08T23:56:05.571Z,20.12
2022-11-08T23:58:33.270Z,20.11
